Wetterstation Vordersexau
Wetterdaten: Woche 26.08.13 - 01.09.13 (KW35)
Datum Zeit Temp. A. Feuchte A. Luftdruck Regen Wind Richtung Taupunkt Windchill Windben
26.08.2013 00:00 13,6 C 76 % 1010,6 hPa 0,0 l/m 0,0 km/h O-SO 9,4 C 13,6 C 0,0 km/h
26.08.2013 01:00 13,6 C 76 % 1010,4 hPa 0,0 l/m 0,0 km/h S-SO 9,4 C 13,6 C 0,0 km/h
26.08.2013 02:00 13,7 C 75 % 1010,1 hPa 0,0 l/m 0,0 km/h S-SO 9,3 C 13,7 C 0,0 km/h
26.08.2013 03:00 13,5 C 75 % 1009,9 hPa 0,0 l/m 0,0 km/h W-SW 9,2 C 13,5 C 0,0 km/h
26.08.2013 04:00 13,6 C 73 % 1009,7 hPa 0,0 l/m 0,0 km/h NW 8,9 C 13,6 C 0,0 km/h
26.08.2013 05:00 13,4 C 73 % 1009,6 hPa 0,0 l/m 1,9 km/h S-SW 8,7 C 13,4 C 1,1 km/h
26.08.2013 06:00 13,3 C 73 % 1009,2 hPa 0,0 l/m 0,0 km/h NO 8,6 C 13,3 C 0,0 km/h
26.08.2013 07:00 12,8 C 74 % 1009,5 hPa 0,0 l/m 0,0 km/h NO 8,3 C 12,8 C 0,0 km/h
26.08.2013 08:00 14,4 C 73 % 1009,6 hPa 0,0 l/m 0,0 km/h O-NO 9,6 C 14,4 C 0,0 km/h
26.08.2013 09:00 16,3 C 81 % 1009,7 hPa 0,0 l/m 0,0 km/h N-NO 13,0 C 16,3 C 0,0 km/h
26.08.2013 10:00 18,5 C 74 % 1010,0 hPa 0,0 l/m 0,0 km/h NW 13,8 C 18,5 C 0,0 km/h
26.08.2013 11:00 17,6 C 72 % 1010,2 hPa 0,0 l/m 8,4 km/h NW 12,5 C 16,7 C 4,7 km/h
26.08.2013 12:00 19,3 C 69 % 1010,3 hPa 0,0 l/m 3,9 km/h W 13,5 C 19,3 C 2,2 km/h
26.08.2013 13:00 23,1 C 59 % 1010,0 hPa 0,0 l/m 0,0 km/h O-NO 14,6 C 23,1 C 0,0 km/h
26.08.2013 14:00 24,1 C 55 % 1010,0 hPa 0,0 l/m 0,0 km/h SO 14,5 C 24,1 C 0,0 km/h
26.08.2013 15:00 28,6 C 46 % 1009,7 hPa 0,0 l/m 0,0 km/h NO 15,8 C 28,6 C 0,0 km/h
26.08.2013 16:00 30,9 C 36 % 1009,7 hPa 0,0 l/m 0,0 km/h O 14,1 C 30,9 C 0,0 km/h
26.08.2013 17:00 26,5 C 42 % 1009,9 hPa 0,0 l/m 0,0 km/h O 12,5 C 26,5 C 0,0 km/h
26.08.2013 18:00 24,3 C 50 % 1010,0 hPa 0,0 l/m 0,0 km/h O-NO 13,2 C 24,3 C 0,0 km/h
26.08.2013 19:00 20,1 C 65 % 1010,1 hPa 0,0 l/m 0,0 km/h S 13,3 C 20,1 C 0,0 km/h
26.08.2013 20:00 16,9 C 75 % 1010,4 hPa 0,0 l/m 0,0 km/h S 12,4 C 16,9 C 0,0 km/h
26.08.2013 21:00 15,3 C 80 % 1010,7 hPa 0,0 l/m 7,1 km/h S-SO 11,9 C 14,9 C 4,0 km/h
26.08.2013 22:00 14,0 C 81 % 1010,8 hPa 0,0 l/m 0,0 km/h S 10,8 C 14,0 C 0,0 km/h
26.08.2013 23:00 12,8 C 81 % 1011,5 hPa 0,0 l/m 3,9 km/h O-NO 9,6 C 12,8 C 2,2 km/h
27.08.2013 00:00 12,9 C 79 % 1011,3 hPa 0,0 l/m 0,0 km/h O-NO 9,3 C 12,9 C 0,0 km/h
27.08.2013 01:00 11,6 C 79 % 1011,2 hPa 0,0 l/m 0,0 km/h O-SO 8,1 C 11,6 C 0,0 km/h
27.08.2013 02:00 12,3 C 76 % 1011,3 hPa 0,0 l/m 0,0 km/h O-SO 8,2 C 12,3 C 0,0 km/h
27.08.2013 03:00 12,3 C 75 % 1011,5 hPa 0,0 l/m 0,0 km/h O-SO 8,0 C 12,3 C 0,0 km/h
27.08.2013 04:00 10,8 C 77 % 1011,1 hPa 0,0 l/m 0,0 km/h O-SO 6,9 C 10,8 C 0,0 km/h
27.08.2013 05:00 10,9 C 75 % 1011,1 hPa 0,0 l/m 0,0 km/h O-NO 6,6 C 10,9 C 0,0 km/h
27.08.2013 06:00 10,9 C 72 % 1011,1 hPa 0,0 l/m 0,0 km/h S-SO 6,1 C 10,9 C 0,0 km/h
27.08.2013 07:00 11,5 C 70 % 1011,3 hPa 0,0 l/m 0,0 km/h S-SO 6,2 C 11,5 C 0,0 km/h
27.08.2013 08:00 13,6 C 65 % 1011,5 hPa 0,0 l/m 0,0 km/h S 7,1 C 13,6 C 0,0 km/h
27.08.2013 09:00 19,9 C 81 % 1011,2 hPa 0,0 l/m 0,0 km/h NO 16,5 C 19,9 C 0,0 km/h
27.08.2013 10:00 19,5 C 73 % 1011,2 hPa 0,0 l/m 0,0 km/h N 14,5 C 19,5 C 0,0 km/h
27.08.2013 11:00 21,1 C 70 % 1011,1 hPa 0,0 l/m 0,0 km/h N 15,4 C 21,1 C 0,0 km/h
27.08.2013 12:00 19,3 C 76 % 1011,1 hPa 0,0 l/m 11,0 km/h NW 15,0 C 17,5 C 6,1 km/h
27.08.2013 13:00 19,8 C 75 % 1010,9 hPa 0,0 l/m 1,9 km/h N 15,2 C 19,8 C 1,1 km/h
27.08.2013 14:00 19,4 C 76 % 1010,8 hPa 0,0 l/m 1,3 km/h N-NW 15,1 C 19,4 C 0,7 km/h
27.08.2013 15:00 18,8 C 80 % 1010,8 hPa 1,6 l/m 0,0 km/h NW 15,3 C 18,8 C 0,0 km/h
27.08.2013 16:00 27,3 C 58 % 1010,7 hPa 0,0 l/m 0,0 km/h S-SO 18,3 C 27,3 C 0,0 km/h
27.08.2013 17:00 17,9 C 79 % 1010,8 hPa 0,0 l/m 1,9 km/h S 14,2 C 17,9 C 1,1 km/h
27.08.2013 18:00 16,9 C 81 % 1010,9 hPa 0,0 l/m 9,7 km/h S-SO 13,6 C 15,3 C 5,4 km/h
27.08.2013 19:00 15,9 C 81 % 1011,3 hPa 0,0 l/m 0,0 km/h S 12,6 C 15,9 C 0,0 km/h
27.08.2013 20:00 15,4 C 79 % 1011,8 hPa 0,0 l/m 0,0 km/h S-SO 11,8 C 15,4 C 0,0 km/h
27.08.2013 21:00 14,6 C 77 % 1012,1 hPa 0,0 l/m 0,0 km/h S-SO 10,6 C 14,6 C 0,0 km/h
27.08.2013 22:00 14,7 C 75 % 1012,7 hPa 0,0 l/m 0,0 km/h S-SO 10,3 C 14,7 C 0,0 km/h
27.08.2013 23:00 14,8 C 73 % 1012,9 hPa 0,0 l/m 0,0 km/h S-SO 10,0 C 14,8 C 0,0 km/h
28.08.2013 00:00 14,8 C 71 % 1012,9 hPa 0,0 l/m 0,0 km/h S-SO 9,6 C 14,8 C 0,0 km/h
28.08.2013 01:00 14,6 C 70 % 1013,2 hPa 0,0 l/m 0,0 km/h S-SO 9,2 C 14,6 C 0,0 km/h
28.08.2013 02:00 14,9 C 69 % 1013,3 hPa 0,0 l/m 0,0 km/h O-SO 9,3 C 14,9 C 0,0 km/h
28.08.2013 03:00 14,9 C 68 % 1013,1 hPa 0,0 l/m 0,0 km/h O 9,0 C 14,9 C 0,0 km/h
28.08.2013 04:00 15,0 C 68 % 1013,5 hPa 0,0 l/m 0,0 km/h O 9,1 C 15,0 C 0,0 km/h
28.08.2013 05:00 15,0 C 68 % 1013,7 hPa 0,0 l/m 0,0 km/h NO 9,1 C 15,0 C 0,0 km/h
28.08.2013 06:00 14,8 C 68 % 1013,8 hPa 0,0 l/m 0,0 km/h NO 9,0 C 14,8 C 0,0 km/h
28.08.2013 07:00 14,9 C 69 % 1014,4 hPa 0,0 l/m 0,0 km/h NO 9,3 C 14,9 C 0,0 km/h
28.08.2013 08:00 15,4 C 69 % 1014,5 hPa 0,0 l/m 0,0 km/h NO 9,7 C 15,4 C 0,0 km/h
28.08.2013 09:00 16,4 C 75 % 1015,0 hPa 0,0 l/m 0,0 km/h SW 12,0 C 16,4 C 0,0 km/h
28.08.2013 10:00 18,5 C 81 % 1015,6 hPa 0,0 l/m 0,0 km/h NO 15,2 C 18,5 C 0,0 km/h
28.08.2013 11:00 22,1 C 76 % 1015,6 hPa 0,0 l/m 0,0 km/h N-NW 17,7 C 22,1 C 0,0 km/h
28.08.2013 12:00 19,4 C 74 % 1015,6 hPa 0,0 l/m 2,6 km/h S-SW 14,6 C 19,4 C 1,4 km/h
28.08.2013 13:00 20,9 C 76 % 1015,8 hPa 0,0 l/m 9,7 km/h W 16,5 C 19,7 C 5,4 km/h
28.08.2013 14:00 21,6 C 69 % 1016,0 hPa 0,0 l/m 0,0 km/h S-SO 15,7 C 21,6 C 0,0 km/h
28.08.2013 15:00 17,6 C 80 % 1016,2 hPa 3,6 l/m 0,0 km/h S 14,1 C 17,6 C 0,0 km/h
28.08.2013 16:00 20,4 C 77 % 1016,1 hPa 0,0 l/m 0,0 km/h SW 16,2 C 20,4 C 0,0 km/h
28.08.2013 17:00 20,9 C 76 % 1016,5 hPa 0,0 l/m 0,0 km/h SW 16,5 C 20,9 C 0,0 km/h
28.08.2013 18:00 20,2 C 76 % 1016,7 hPa 0,0 l/m 0,0 km/h N-NO 15,8 C 20,2 C 0,0 km/h
28.08.2013 19:00 18,8 C 78 % 1017,0 hPa 0,0 l/m 0,0 km/h O-NO 14,9 C 18,8 C 0,0 km/h
28.08.2013 20:00 17,0 C 81 % 1017,2 hPa 0,0 l/m 0,0 km/h SO 13,7 C 17,0 C 0,0 km/h
28.08.2013 21:00 15,9 C 78 % 1017,6 hPa 0,0 l/m 0,0 km/h S-SO 12,1 C 15,9 C 0,0 km/h
28.08.2013 22:00 14,3 C 79 % 1018,2 hPa 0,0 l/m 0,0 km/h SO 10,7 C 14,3 C 0,0 km/h
28.08.2013 23:00 13,9 C 75 % 1018,4 hPa 0,0 l/m 0,0 km/h S 9,5 C 13,9 C 0,0 km/h
29.08.2013 00:00 13,0 C 74 % 1018,2 hPa 0,0 l/m 0,0 km/h S-SO 8,5 C 13,0 C 0,0 km/h
29.08.2013 01:00 12,3 C 72 % 1018,5 hPa 0,0 l/m 0,0 km/h S-SW 7,4 C 12,3 C 0,0 km/h
29.08.2013 02:00 11,9 C 69 % 1018,5 hPa 0,0 l/m 0,0 km/h S 6,4 C 11,9 C 0,0 km/h
29.08.2013 03:00 11,4 C 68 % 1018,2 hPa 0,0 l/m 0,0 km/h S-SO 5,7 C 11,4 C 0,0 km/h
29.08.2013 04:00 10,5 C 67 % 1018,4 hPa 0,0 l/m 0,0 km/h S-SO 4,6 C 10,5 C 0,0 km/h
29.08.2013 05:00 10,4 C 66 % 1018,2 hPa 0,0 l/m 0,0 km/h O 4,3 C 10,4 C 0,0 km/h
29.08.2013 06:00 9,4 C 66 % 1018,3 hPa 0,0 l/m 0,0 km/h O 3,4 C 9,4 C 0,0 km/h
29.08.2013 07:00 8,8 C 67 % 1019,1 hPa 0,0 l/m 0,0 km/h NO 3,0 C 8,8 C 0,0 km/h
29.08.2013 08:00 11,3 C 57 % 1019,5 hPa 0,0 l/m 0,0 km/h NO 3,1 C 11,3 C 0,0 km/h
29.08.2013 09:00 16,8 C 82 % 1019,7 hPa 0,0 l/m 0,0 km/h N-NW 13,7 C 16,8 C 0,0 km/h
29.08.2013 10:00 21,0 C 71 % 1019,8 hPa 0,0 l/m 0,0 km/h N-NW 15,5 C 21,0 C 0,0 km/h
29.08.2013 11:00 23,1 C 65 % 1019,6 hPa 0,0 l/m 11,7 km/h SW 16,2 C 21,7 C 6,5 km/h
29.08.2013 12:00 23,9 C 62 % 1019,3 hPa 0,0 l/m 0,0 km/h N-NW 16,2 C 23,9 C 0,0 km/h
29.08.2013 13:00 25,8 C 59 % 1019,0 hPa 0,0 l/m 0,0 km/h O-NO 17,2 C 25,8 C 0,0 km/h
29.08.2013 14:00 26,9 C 56 % 1018,5 hPa 0,0 l/m 9,7 km/h O-NO 17,4 C 26,3 C 5,4 km/h
29.08.2013 15:00 28,4 C 48 % 1017,9 hPa 0,5 l/m 8,4 km/h O-NO 16,3 C 28,1 C 4,7 km/h
29.08.2013 16:00 29,4 C 44 % 1017,8 hPa 0,0 l/m 0,6 km/h N-NW 15,8 C 29,4 C 0,4 km/h
29.08.2013 17:00 25,7 C 50 % 1017,8 hPa 0,0 l/m 0,0 km/h S-SO 14,5 C 25,7 C 0,0 km/h
29.08.2013 18:00 31,3 C 38 % 1017,8 hPa 0,0 l/m 0,0 km/h O-NO 15,3 C 31,3 C 0,0 km/h
29.08.2013 19:00 25,9 C 50 % 1017,9 hPa 0,0 l/m 0,0 km/h S-SO 14,7 C 25,9 C 0,0 km/h
29.08.2013 20:00 18,1 C 71 % 1018,4 hPa 0,0 l/m 0,0 km/h SO 12,8 C 18,1 C 0,0 km/h
29.08.2013 21:00 15,6 C 79 % 1018,6 hPa 0,0 l/m 0,0 km/h SO 12,0 C 15,6 C 0,0 km/h
29.08.2013 22:00 14,9 C 81 % 1018,9 hPa 0,0 l/m 0,0 km/h O-NO 11,7 C 14,9 C 0,0 km/h
29.08.2013 23:00 13,9 C 81 % 1019,0 hPa 0,0 l/m 0,0 km/h S-SO 10,7 C 13,9 C 0,0 km/h
30.08.2013 00:00 13,3 C 80 % 1019,2 hPa 0,0 l/m 0,0 km/h SO 9,9 C 13,3 C 0,0 km/h
30.08.2013 01:00 12,5 C 79 % 1019,2 hPa 0,0 l/m 0,0 km/h O-SO 9,0 C 12,5 C 0,0 km/h
30.08.2013 02:00 11,9 C 78 % 1018,9 hPa 0,0 l/m 0,0 km/h O-SO 8,2 C 11,9 C 0,0 km/h
30.08.2013 03:00 11,3 C 77 % 1018,7 hPa 0,0 l/m 0,0 km/h S-SO 7,4 C 11,3 C 0,0 km/h
30.08.2013 04:00 11,3 C 75 % 1018,7 hPa 0,0 l/m 0,0 km/h O 7,0 C 11,3 C 0,0 km/h
30.08.2013 05:00 10,9 C 74 % 1018,7 hPa 0,0 l/m 0,0 km/h O-SO 6,5 C 10,9 C 0,0 km/h
30.08.2013 06:00 10,3 C 73 % 1018,5 hPa 0,0 l/m 0,0 km/h S-SO 5,7 C 10,3 C 0,0 km/h
30.08.2013 07:00 10,4 C 71 % 1018,6 hPa 0,0 l/m 0,0 km/h S 5,4 C 10,4 C 0,0 km/h
30.08.2013 08:00 12,1 C 67 % 1019,1 hPa 0,0 l/m 0,0 km/h O 6,2 C 12,1 C 0,0 km/h
30.08.2013 09:00 19,6 C 79 % 1019,0 hPa 0,0 l/m 0,0 km/h NW 15,9 C 19,6 C 0,0 km/h
30.08.2013 10:00 24,4 C 57 % 1018,8 hPa 0,0 l/m 0,0 km/h N-NW 15,3 C 24,4 C 0,0 km/h
30.08.2013 11:00 26,6 C 54 % 1018,4 hPa 0,0 l/m 0,0 km/h NO 16,5 C 26,6 C 0,0 km/h
30.08.2013 12:00 27,4 C 50 % 1018,1 hPa 0,0 l/m 6,5 km/h NO 16,0 C 27,4 C 3,6 km/h
30.08.2013 13:00 27,9 C 49 % 1017,8 hPa 0,0 l/m 2,6 km/h W-NW 16,2 C 27,9 C 1,4 km/h
30.08.2013 14:00 27,8 C 49 % 1017,4 hPa 0,0 l/m 11,0 km/h N-NW 16,1 C 27,1 C 6,1 km/h
30.08.2013 15:00 31,4 C 40 % 1017,1 hPa 0,0 l/m 0,0 km/h N-NW 16,1 C 31,4 C 0,0 km/h
30.08.2013 16:00 32,7 C 34 % 1017,0 hPa 0,0 l/m 0,0 km/h N-NW 14,8 C 32,7 C 0,0 km/h
30.08.2013 17:00 34,1 C 32 % 1016,7 hPa 0,0 l/m 7,8 km/h NO 15,0 C 34,1 C 4,3 km/h
30.08.2013 18:00 31,8 C 32 % 1017,0 hPa 0,0 l/m 3,9 km/h NO 13,0 C 31,8 C 2,2 km/h
30.08.2013 19:00 27,6 C 37 % 1017,1 hPa 0,0 l/m 0,0 km/h O-NO 11,6 C 27,6 C 0,0 km/h
30.08.2013 20:00 18,2 C 67 % 1017,7 hPa 0,0 l/m 0,0 km/h SO 12,0 C 18,2 C 0,0 km/h
30.08.2013 21:00 16,4 C 74 % 1018,1 hPa 0,0 l/m 0,0 km/h S 11,8 C 16,4 C 0,0 km/h
30.08.2013 22:00 16,4 C 77 % 1018,6 hPa 0,0 l/m 0,0 km/h S-SO 12,4 C 16,4 C 0,0 km/h
30.08.2013 23:00 15,9 C 78 % 1018,5 hPa 0,0 l/m 5,8 km/h S-SO 12,1 C 15,9 C 3,2 km/h
31.08.2013 00:00 14,7 C 80 % 1018,8 hPa 0,0 l/m 0,0 km/h S-SO 11,3 C 14,7 C 0,0 km/h
31.08.2013 01:00 13,7 C 81 % 1019,4 hPa 0,0 l/m 0,0 km/h S-SO 10,5 C 13,7 C 0,0 km/h
31.08.2013 02:00 14,0 C 81 % 1019,7 hPa 0,0 l/m 0,0 km/h S-SO 10,8 C 14,0 C 0,0 km/h
31.08.2013 03:00 12,8 C 81 % 1019,4 hPa 0,0 l/m 0,0 km/h SO 9,6 C 12,8 C 0,0 km/h
31.08.2013 04:00 12,8 C 81 % 1019,7 hPa 0,0 l/m 0,0 km/h S 9,6 C 12,8 C 0,0 km/h
31.08.2013 05:00 11,8 C 80 % 1019,7 hPa 0,0 l/m 0,0 km/h S-SO 8,5 C 11,8 C 0,0 km/h
31.08.2013 06:00 11,3 C 79 % 1019,4 hPa 0,0 l/m 0,0 km/h S 7,8 C 11,3 C 0,0 km/h
31.08.2013 07:00 11,3 C 77 % 1019,7 hPa 0,0 l/m 0,0 km/h S-SO 7,4 C 11,3 C 0,0 km/h
31.08.2013 08:00 13,1 C 73 % 1019,9 hPa 0,0 l/m 0,0 km/h S 8,4 C 13,1 C 0,0 km/h
31.08.2013 09:00 18,8 C 81 % 1020,0 hPa 0,0 l/m 0,0 km/h O-SO 15,5 C 18,8 C 0,0 km/h
31.08.2013 10:00 24,5 C 60 % 1019,8 hPa 0,0 l/m 0,0 km/h SW 16,2 C 24,5 C 0,0 km/h
31.08.2013 11:00 27,6 C 50 % 1019,8 hPa 0,0 l/m 0,0 km/h O-NO 16,2 C 27,6 C 0,0 km/h
31.08.2013 12:00 28,6 C 41 % 1019,7 hPa 0,0 l/m 0,0 km/h NW 14,0 C 28,6 C 0,0 km/h
31.08.2013 13:00 27,5 C 42 % 1019,5 hPa 0,0 l/m 0,0 km/h N 13,4 C 27,5 C 0,0 km/h
31.08.2013 14:00 28,8 C 42 % 1019,6 hPa 0,0 l/m 0,0 km/h NO 14,6 C 28,8 C 0,0 km/h
31.08.2013 15:00 26,9 C 45 % 1019,4 hPa 0,0 l/m 0,0 km/h N-NW 13,9 C 26,9 C 0,0 km/h
31.08.2013 16:00 27,4 C 44 % 1019,1 hPa 0,0 l/m 7,8 km/h N-NO 14,0 C 27,2 C 4,3 km/h
31.08.2013 17:00 23,9 C 49 % 1019,4 hPa 0,0 l/m 0,0 km/h NO 12,5 C 23,9 C 0,0 km/h
31.08.2013 18:00 21,6 C 57 % 1019,7 hPa 0,0 l/m 0,0 km/h SO 12,7 C 21,6 C 0,0 km/h
31.08.2013 19:00 19,8 C 66 % 1019,8 hPa 0,0 l/m 0,0 km/h N-NW 13,3 C 19,8 C 0,0 km/h
31.08.2013 20:00 17,9 C 76 % 1020,6 hPa 0,0 l/m 0,0 km/h S-SO 13,6 C 17,9 C 0,0 km/h
31.08.2013 21:00 16,9 C 79 % 1020,9 hPa 0,0 l/m 0,0 km/h S-SO 13,2 C 16,9 C 0,0 km/h
31.08.2013 22:00 16,1 C 81 % 1021,3 hPa 0,0 l/m 0,0 km/h S-SO 12,8 C 16,1 C 0,0 km/h
31.08.2013 23:00 14,4 C 81 % 1021,4 hPa 0,0 l/m 0,0 km/h S-SO 11,2 C 14,4 C 0,0 km/h
01.09.2013 00:00 14,1 C 80 % 1021,6 hPa 0,0 l/m 0,0 km/h O-NO 10,7 C 14,1 C 0,0 km/h
01.09.2013 01:00 14,8 C 78 % 1021,4 hPa 0,0 l/m 0,0 km/h SO 11,0 C 14,8 C 0,0 km/h
01.09.2013 02:00 15,3 C 78 % 1021,5 hPa 0,0 l/m 0,0 km/h SO 11,5 C 15,3 C 0,0 km/h
01.09.2013 03:00 14,9 C 79 % 1021,6 hPa 0,0 l/m 0,0 km/h S-SO 11,3 C 14,9 C 0,0 km/h
01.09.2013 04:00 15,2 C 78 % 1021,4 hPa 0,0 l/m 0,0 km/h SO 11,4 C 15,2 C 0,0 km/h
01.09.2013 05:00 15,2 C 77 % 1021,5 hPa 0,0 l/m 0,0 km/h SO 11,2 C 15,2 C 0,0 km/h
01.09.2013 06:00 14,9 C 77 % 1021,7 hPa 0,0 l/m 0,0 km/h SO 10,9 C 14,9 C 0,0 km/h
01.09.2013 07:00 14,9 C 76 % 1021,8 hPa 0,0 l/m 0,0 km/h N-NO 10,7 C 14,9 C 0,0 km/h
01.09.2013 08:00 15,9 C 75 % 1022,1 hPa 0,0 l/m 0,0 km/h O-NO 11,5 C 15,9 C 0,0 km/h
01.09.2013 09:00 18,4 C 81 % 1022,6 hPa 0,0 l/m 0,0 km/h NO 15,1 C 18,4 C 0,0 km/h
01.09.2013 10:00 22,6 C 59 % 1023,4 hPa 0,0 l/m 2,6 km/h O-NO 14,2 C 22,6 C 1,4 km/h
01.09.2013 11:00 25,9 C 50 % 1023,4 hPa 0,0 l/m 3,2 km/h O-NO 14,7 C 25,9 C 1,8 km/h
01.09.2013 12:00 23,9 C 55 % 1023,5 hPa 0,0 l/m 0,0 km/h O-NO 14,3 C 23,9 C 0,0 km/h
01.09.2013 13:00 23,9 C 50 % 1023,2 hPa 0,0 l/m 13,0 km/h NO 12,8 C 22,3 C 7,2 km/h
01.09.2013 14:00 22,4 C 53 % 1023,3 hPa 0,0 l/m 9,7 km/h NO 12,3 C 21,4 C 5,4 km/h
01.09.2013 15:00 23,1 C 50 % 1023,7 hPa 0,0 l/m 5,8 km/h O-NO 12,1 C 23,1 C 3,2 km/h
01.09.2013 16:00 25,2 C 41 % 1023,4 hPa 0,0 l/m 2,6 km/h O 11,0 C 25,2 C 1,4 km/h
01.09.2013 17:00 23,9 C 41 % 1023,5 hPa 0,0 l/m 13,0 km/h N-NO 9,8 C 22,3 C 7,2 km/h
01.09.2013 18:00 19,6 C 50 % 1023,8 hPa 0,0 l/m 0,0 km/h N-NO 8,9 C 19,6 C 0,0 km/h
01.09.2013 19:00 17,4 C 54 % 1024,0 hPa 0,0 l/m 0,0 km/h N 8,0 C 17,4 C 0,0 km/h
01.09.2013 20:00 15,3 C 59 % 1024,4 hPa 0,0 l/m 0,0 km/h N 7,3 C 15,3 C 0,0 km/h
01.09.2013 21:00 13,0 C 73 % 1025,3 hPa 0,0 l/m 0,0 km/h N 8,3 C 13,0 C 0,0 km/h
01.09.2013 22:00 11,6 C 78 % 1025,6 hPa 0,0 l/m 0,0 km/h N 7,9 C 11,6 C 0,0 km/h
01.09.2013 23:00 11,2 C 79 % 1025,7 hPa 0,0 l/m 0,0 km/h N 7,7 C 11,2 C 0,0 km/h
Min-Datum _ 29.08.13 30.08.13 26.08.13 - 26.08.13 - 29.08.13 29.08.13 26.08.13
_ Min-Zeit 07:19 17:19 06:19 - 00:19 - 07:19 07:19 00:19
Minimum _ 8,8 C 32 % 1009,2 hPa - 0,0 km/h - 3,0 C 8,8 C 0,0 km/h
Max-Datum _ 30.08.13 29.08.13 01.09.13 28.08.13 01.09.13 - 27.08.13 30.08.13 01.09.13
_ Max-Zeit 17:19 09:19 23:19 15:19 13:19 - 16:19 17:19 13:19
Maximum _ 34,1 C 82 % 1025,7 hPa 3,6 l/m 13,0 km/h
NO
- 18,3 C 34,1 C 7,2 km/h
NO
Durchschnitt _ 18,1 C 68 % 1016,6 hPa #5,7 l/m 1,1 km/h S-SO 11,6 C 18,0 C 0,6 km/h
www.sexauwetter.de